Terminal Aerodrome Forecast
Issued by NWS

Home | Current Version | Previous Version | Text Only | Print | Product List | Glossary On
Versions: 1 2 3 4 5 6 7 8 9 10 11 12 13 14 15 16 17 18 19
000
FTUS42 KILM 171120
TAFCRE
TAF
KCRE 171120Z 1712/1812 12005KT P6SM SCT009
     FM171400 15007KT P6SM SCT080
     FM171600 17007KT P6SM VCTS SCT035CB
     FM172200 19007KT P6SM BKN100
     FM180600 22008KT P6SM SCT010
     FM180900 24007KT P6SM BKN010=

USA.gov is the U.S. government's official web portal to all federal, state and local government web resources and services.